Česky Dansk Deutsch English Español Suomi Français Magyar Italiano Nederlands norsk Polski Português svenska Türkçe

 

Het Weer

Abeche (Tjaad)

12:00, 21 Agosto 2016 (GMT)

NWNNE
WE
SWSSE
Home            
Abeche Geneina Am-Timan Bokoro Birao Nyala El Fasher Faya Sarh N'Dele Ndjamena Bol-Berim Moundou Maroua-Salak Pala Bria Yalinga Maiduguri Diffa Bambari Bossangoa Garoua Maine-Soroa

Om een weerknop op uw website of weblog te plaatsen, copieer onderstaande code en plak die in uw pagina. In het eerste vakje staat HTML-code, in het tweede vakje UBB-code.


Add to Google

Details

Wind speed:2 bf, 6 kn, 3.1 m/s, 6.9 miles/h, 11.1 km/h
Wind direction:SW, 220°
Visibilidad:Mayor de 10000 m, 10 km, 32800 ft, 6.2 miles
Clouds:Algunas nubes at 4000 ft, 1219 m
Nubes dispersas at 15000 ft, 4572 m
Temperatura:32°C, 90°F
Sensación térmica:34°C, 94°F
Punto de rocío:20°C, 68°F
Presión atmosférica :1013 hPa, 759.8 mmHg, 29.91 inHg, 1.000 atm
Humedad relativa:49.2 %
METAR:FTTC 211200Z 22006KT 9999 FEW040 SCT150 32/20 Q1013

Snelkoppelingen

Actuele weersinformatie van de hele wereld. Voeg locaties toe met het plus (+) symbool. Deze snelkoppelingen kunnen worden toegevoegd aan Google.

Lid van de Technetium groep

website free tracking
StatCounter NetStat W3C Validator

25-04-2018 10:13:13
astro.technetium.be money.technetium.be phote.technetium.be tafeltennistafel.technetium.be www.ligfiets.net